createdAt,value
2018-12-17T00:00:45.253Z,16.00
2018-12-17T00:05:52.349Z,16.73
2018-12-17T00:10:58.859Z,15.53
2018-12-17T00:16:03.848Z,15.07
2018-12-17T00:21:08.720Z,15.67
2018-12-17T00:26:13.735Z,15.70
2018-12-17T00:31:18.516Z,16.30
2018-12-17T00:36:23.544Z,15.50
2018-12-17T00:41:29.603Z,15.73
2018-12-17T00:46:34.370Z,16.07
2018-12-17T00:51:39.195Z,13.63
2018-12-17T00:56:44.091Z,14.33
2018-12-17T01:01:49.755Z,14.03
2018-12-17T01:06:54.475Z,14.37
2018-12-17T01:11:59.530Z,13.83
2018-12-17T01:17:04.088Z,15.13
2018-12-17T01:22:08.704Z,13.37
2018-12-17T01:27:13.759Z,13.97
2018-12-17T01:32:18.707Z,14.67
2018-12-17T01:37:23.745Z,12.87
2018-12-17T01:42:28.684Z,13.47
2018-12-17T01:47:33.605Z,13.33
2018-12-17T01:52:38.473Z,12.63
2018-12-17T01:57:43.360Z,14.20
2018-12-17T02:02:48.374Z,14.07
2018-12-17T02:07:53.705Z,14.50
2018-12-17T02:12:58.578Z,13.57
2018-12-17T02:18:03.508Z,13.90
2018-12-17T02:23:08.366Z,13.80
2018-12-17T02:28:13.238Z,14.00
2018-12-17T02:33:18.267Z,13.57
2018-12-17T02:38:23.239Z,14.10
2018-12-17T02:43:28.166Z,13.23
2018-12-17T02:48:33.120Z,14.07
2018-12-17T02:53:38.073Z,13.33
2018-12-17T02:58:44.115Z,13.93
2018-12-17T03:03:49.388Z,14.47
2018-12-17T03:08:54.363Z,15.07
2018-12-17T03:13:59.263Z,13.67
2018-12-17T03:19:04.122Z,11.93
2018-12-17T03:24:09.017Z,12.90
2018-12-17T03:29:14.009Z,12.60
2018-12-17T03:34:18.868Z,10.93
2018-12-17T03:39:23.837Z,11.57
2018-12-17T03:44:28.669Z,10.10
2018-12-17T03:49:33.505Z,10.93
2018-12-17T03:54:38.467Z,10.30
2018-12-17T03:59:43.411Z,10.27
2018-12-17T04:04:48.708Z,9.23
2018-12-17T04:09:53.757Z,9.30
2018-12-17T04:14:58.649Z,9.17
2018-12-17T04:20:03.425Z,9.47
2018-12-17T04:25:08.347Z,7.30
2018-12-17T04:30:13.288Z,8.07
2018-12-17T04:35:18.153Z,8.47
2018-12-17T04:40:23.013Z,12.67
2018-12-17T04:45:28.032Z,13.07
2018-12-17T04:50:33.055Z,17.03
2018-12-17T04:55:38.048Z,17.40
2018-12-17T05:00:42.993Z,12.77
2018-12-17T05:05:47.939Z,14.50
2018-12-17T05:10:52.879Z,11.70
2018-12-17T05:15:57.796Z,10.73
2018-12-17T05:21:02.664Z,9.60
2018-12-17T05:26:07.416Z,8.97
2018-12-17T05:31:12.458Z,10.83
2018-12-17T05:36:17.416Z,8.17
2018-12-17T05:41:22.182Z,8.47
2018-12-17T05:46:27.075Z,7.93
2018-12-17T05:51:32.070Z,7.83
2018-12-17T05:56:36.926Z,9.20
2018-12-17T06:01:41.820Z,9.70
2018-12-17T06:06:46.672Z,16.10
2018-12-17T06:11:51.572Z,19.77
2018-12-17T06:16:57.329Z,22.47
2018-12-17T06:22:02.361Z,20.93
2018-12-17T06:27:07.298Z,21.90
2018-12-17T06:32:12.230Z,23.17
2018-12-17T06:37:17.091Z,21.17
2018-12-17T06:42:21.960Z,13.90
2018-12-17T06:47:26.877Z,22.50
2018-12-17T06:52:31.768Z,43.30
2018-12-17T06:57:37.719Z,19.83
2018-12-17T07:02:42.568Z,31.87
2018-12-17T07:07:47.533Z,11.17
2018-12-17T07:12:52.442Z,9.33
2018-12-17T07:17:57.224Z,9.67
2018-12-17T07:23:02.365Z,8.33
2018-12-17T07:28:07.283Z,8.10
2018-12-17T07:33:12.067Z,7.80
2018-12-17T07:38:16.868Z,8.10
2018-12-17T07:43:21.619Z,8.70
2018-12-17T07:48:26.488Z,7.30
2018-12-17T07:53:31.404Z,7.63
2018-12-17T07:58:36.052Z,9.03
2018-12-17T08:03:41.012Z,9.83
2018-12-17T08:08:45.856Z,9.87
2018-12-17T08:13:50.713Z,8.30
2018-12-17T08:18:55.651Z,9.67
2018-12-17T08:24:00.605Z,8.73
2018-12-17T08:29:05.540Z,9.60
2018-12-17T08:34:10.401Z,9.33
2018-12-17T08:39:15.355Z,9.63
2018-12-17T08:44:20.385Z,9.17
2018-12-17T08:49:25.157Z,9.13
2018-12-17T08:54:30.052Z,9.40
2018-12-17T08:59:34.910Z,9.00
2018-12-17T09:04:39.662Z,10.30
2018-12-17T09:09:44.615Z,9.37
2018-12-17T09:14:49.553Z,10.53
2018-12-17T09:19:54.382Z,9.97
2018-12-17T09:24:59.283Z,11.03
2018-12-17T09:30:04.823Z,9.33
2018-12-17T09:35:09.897Z,10.40
2018-12-17T09:40:14.825Z,9.63
2018-12-17T09:45:19.652Z,11.93
2018-12-17T09:50:24.624Z,17.10
2018-12-17T09:55:29.456Z,14.83
2018-12-17T10:00:34.303Z,10.93
2018-12-17T10:05:39.257Z,18.27
2018-12-17T10:10:44.099Z,13.03
2018-12-17T10:15:48.936Z,21.00
2018-12-17T10:20:53.816Z,16.27
2018-12-17T10:25:58.632Z,8.30
2018-12-17T10:31:03.571Z,9.90
2018-12-17T10:36:08.467Z,28.37
2018-12-17T10:41:13.290Z,38.90
2018-12-17T10:46:20.271Z,12.23
2018-12-17T10:51:25.109Z,10.60
2018-12-17T10:56:30.041Z,23.80
2018-12-17T11:01:39.968Z,6.87
2018-12-17T11:06:45.194Z,7.13
2018-12-17T11:11:50.129Z,6.90
2018-12-17T11:16:55.087Z,6.00
2018-12-17T11:21:59.939Z,6.40
2018-12-17T11:27:04.885Z,6.97
2018-12-17T11:32:11.706Z,6.20
2018-12-17T11:37:16.696Z,7.60
2018-12-17T11:42:21.648Z,8.03
2018-12-17T11:47:26.500Z,5.57
2018-12-17T11:52:31.455Z,5.30
2018-12-17T11:57:50.093Z,3.60
2018-12-17T12:02:59.218Z,3.83
2018-12-17T12:08:03.927Z,3.40
2018-12-17T12:13:08.749Z,4.60
2018-12-17T12:18:13.656Z,4.60
2018-12-17T12:23:18.522Z,4.83
2018-12-17T12:28:23.289Z,4.40
2018-12-17T12:33:28.329Z,4.70
2018-12-17T12:38:33.267Z,4.87
2018-12-17T12:43:38.212Z,4.80
2018-12-17T12:48:43.084Z,5.13
2018-12-17T12:53:47.943Z,4.73
2018-12-17T12:58:52.986Z,4.80
2018-12-17T13:03:57.840Z,5.53
2018-12-17T13:09:03.124Z,5.87
2018-12-17T13:14:08.144Z,5.03
2018-12-17T13:19:13.111Z,4.67
2018-12-17T13:24:18.228Z,4.67
2018-12-17T13:29:22.952Z,4.67
2018-12-17T13:34:27.716Z,4.00
2018-12-17T13:39:32.666Z,4.93
2018-12-17T13:44:37.500Z,4.03
2018-12-17T13:49:42.437Z,4.53
2018-12-17T13:54:47.545Z,4.50
2018-12-17T13:59:52.449Z,4.43
2018-12-17T14:04:57.314Z,4.37
2018-12-17T14:10:07.264Z,4.87
2018-12-17T14:15:12.108Z,4.67
2018-12-17T14:20:22.160Z,4.30
2018-12-17T14:25:27.040Z,4.90
2018-12-17T14:30:31.861Z,5.00
2018-12-17T14:35:36.632Z,4.87
2018-12-17T14:40:41.572Z,5.60
2018-12-17T14:45:46.393Z,5.90
2018-12-17T14:50:51.160Z,5.70
2018-12-17T14:55:56.211Z,9.83
2018-12-17T15:01:01.079Z,6.30
2018-12-17T15:06:05.884Z,6.27
2018-12-17T15:11:10.753Z,9.23
2018-12-17T15:16:15.766Z,9.13
2018-12-17T15:21:20.651Z,10.90
2018-12-17T15:26:25.653Z,13.30
2018-12-17T15:31:30.639Z,12.70
2018-12-17T15:36:35.495Z,11.60
2018-12-17T15:41:40.328Z,10.33
2018-12-17T15:46:45.251Z,11.33
2018-12-17T15:51:50.215Z,10.60
2018-12-17T15:56:54.954Z,20.23
2018-12-17T16:01:59.938Z,19.87
2018-12-17T16:07:04.874Z,28.33
2018-12-17T16:12:09.819Z,20.33
2018-12-17T16:17:14.861Z,13.80
2018-12-17T16:22:19.734Z,11.30
2018-12-17T16:27:24.879Z,8.13
2018-12-17T16:32:29.839Z,9.17
2018-12-17T16:37:34.731Z,9.47
2018-12-17T16:42:39.605Z,10.20
2018-12-17T16:47:44.575Z,9.13
2018-12-17T16:52:49.595Z,8.13
2018-12-17T16:57:54.579Z,8.40
2018-12-17T17:02:59.414Z,9.07
2018-12-17T17:08:04.467Z,8.87
2018-12-17T17:13:09.335Z,8.60
2018-12-17T17:18:14.232Z,9.03
2018-12-17T17:23:19.116Z,7.40
2018-12-17T17:28:24.450Z,7.37
2018-12-17T17:33:29.281Z,6.40
2018-12-17T17:38:34.240Z,6.03
2018-12-17T17:43:39.087Z,7.03
2018-12-17T17:48:44.136Z,7.20
2018-12-17T17:53:48.988Z,7.30
2018-12-17T17:58:54.145Z,8.20
2018-12-17T18:03:59.184Z,7.80
2018-12-17T18:09:06.075Z,9.80
2018-12-17T18:14:12.295Z,9.23
2018-12-17T18:19:17.207Z,8.93
2018-12-17T18:24:22.379Z,11.30
2018-12-17T18:29:27.409Z,11.93
2018-12-17T18:34:32.785Z,9.83
2018-12-17T18:39:37.848Z,9.70
2018-12-17T18:44:42.671Z,10.60
2018-12-17T18:49:47.608Z,8.47
2018-12-17T18:54:52.465Z,8.77
2018-12-17T18:59:58.438Z,8.90
2018-12-17T19:05:03.568Z,7.20
2018-12-17T19:10:08.604Z,9.30
2018-12-17T19:15:13.577Z,7.23
2018-12-17T19:20:18.332Z,6.87
2018-12-17T19:25:23.254Z,7.57
2018-12-17T19:30:28.119Z,7.63
2018-12-17T19:35:33.094Z,7.80
2018-12-17T19:40:38.022Z,9.23
2018-12-17T19:45:43.050Z,11.30
2018-12-17T19:50:48.124Z,10.23
2018-12-17T19:55:53.040Z,11.53
2018-12-17T20:00:57.873Z,12.53
2018-12-17T20:06:02.978Z,11.53
2018-12-17T20:11:08.021Z,9.50
2018-12-17T20:16:13.145Z,9.23
2018-12-17T20:21:18.091Z,9.67
2018-12-17T20:26:23.036Z,8.80
2018-12-17T20:31:28.010Z,9.67
2018-12-17T20:36:33.009Z,10.10
2018-12-17T20:41:37.903Z,10.10
2018-12-17T20:46:42.836Z,10.13
2018-12-17T20:51:47.777Z,10.03
2018-12-17T20:56:52.644Z,9.97
2018-12-17T21:01:57.714Z,10.67
2018-12-17T21:07:02.740Z,9.60
2018-12-17T21:12:07.681Z,10.93
2018-12-17T21:17:12.718Z,11.07
2018-12-17T21:22:17.556Z,11.33
2018-12-17T21:27:22.405Z,10.73
2018-12-17T21:32:27.468Z,11.83
2018-12-17T21:37:32.286Z,9.13
2018-12-17T21:42:37.962Z,11.23
2018-12-17T21:47:42.944Z,9.03
2018-12-17T21:52:47.768Z,9.10
2018-12-17T21:57:52.722Z,9.53
2018-12-17T22:02:57.644Z,9.33
2018-12-17T22:08:02.399Z,10.73
2018-12-17T22:13:08.270Z,10.50
2018-12-17T22:18:13.134Z,9.93
2018-12-17T22:23:17.882Z,14.33
2018-12-17T22:28:22.920Z,11.53
2018-12-17T22:33:27.850Z,11.10
2018-12-17T22:38:32.816Z,10.33
2018-12-17T22:43:37.679Z,10.03
2018-12-17T22:48:42.511Z,14.10
2018-12-17T22:53:47.439Z,11.70
2018-12-17T22:58:52.197Z,11.40
2018-12-17T23:03:57.133Z,10.83
2018-12-17T23:09:07.282Z,9.97
2018-12-17T23:14:25.337Z,20.33
2018-12-17T23:19:28.951Z,11.80
2018-12-17T23:24:36.631Z,10.83
2018-12-17T23:29:41.658Z,10.97
2018-12-17T23:34:46.581Z,10.60
2018-12-17T23:39:51.690Z,8.77
2018-12-17T23:44:57.103Z,10.07
2018-12-17T23:50:02.053Z,10.90
2018-12-17T23:55:06.976Z,12.67
